St Mary's Airport
PASM : now visible

Airfield :











YOU CAN JOIN US ON...

 
LOGIN :

Register | Disclaimer

   EN    FR    IT 

 









Legend :    VFR   Marginal VFR   IFR   Intensive IFR   Very Intensive IFR
Visi :
Ceiling :
>= 8 km
>= 3000ft
5 to 8 km
1000 to 3000 ft
1500m to 5 km
500 to 1000 ft
800 to 1500m
200 to 500 ft
< 800m
< 200 ft
Symbols :   Thunderstorms  Fog  Heavy snow  Heavy precipitations  Wind > 20 kt






- Airport Elevation : 312 ft
- IATA code : KSM


PASM - St Mary's

CURRENT METAR :
  • 241702Z AUTO 06007KT 10SM CLR M16/M19 A3042 RMK AO2 SLP316 T11561194 FZRANO

EXPIRED METARs :
  • 241602Z AUTO 06009G14KT 10SM CLR M16/M19 A3041 RMK AO2 SLP315 T11561194 FZRANO
  • 241502Z AUTO 10005KT 10SM CLR M17/M19 A3041 RMK AO2 SLP314 60000 T11671194 58010 FZRANO

TAF N/A



MET'MAP, your aeronautical weather chart ! - Copyright ORBIFLY December 2007 - Disclaimer

ORBIFLY MET'MAP TEAM :

Programming & Development : Alexandra Zaïnal
Concept & original design : Baudouin d'Aumeries
Assistance for programming : Marc-Olivier Méhu
Technical & hardware support : Manuel Goepfert

Contact : metmap@orbifly.com




SOURCES & CREDITS :

   NOAA       Earth
Advisory